Time;durP1;ratioP1;P1;durP2;ratioP2;P2;SDS_P1;SDS_P2;PMS_P1;PMS_P2;Temp;Humidity;BMP_temperature;BMP_pressure;BME280_temperature;BME280_humidity;BME280_pressure;Samples;Min_cycle;Max_cycle;Signal;HPM_P1;HPM_P2
2023/04/27 00:01:26;;;;;;;17.73;7.07;;;;;;;;;;12982798;19;20006;-67
2023/04/27 00:05:43;;;;;;;18.83;6.93;;;;;;;;;;12979682;19;20015;-68
2023/04/27 00:10:01;;;;;;;19.13;8.10;;;;;;;;;;12981368;19;20030;-67
2023/04/27 00:14:19;;;;;;;18.52;6.93;;;;;;;;;;12981614;19;20010;-67
2023/04/27 00:18:37;;;;;;;21.92;8.05;;;;;;;;;;12981529;19;20380;-67
2023/04/27 00:22:55;;;;;;;27.42;10.35;;;;;;;;;;12980212;19;20455;-68
2023/04/27 00:27:13;;;;;;;15.90;7.47;;;;;;;;;;12980749;19;20023;-68
2023/04/27 00:31:30;;;;;;;20.70;8.85;;;;;;;;;;12981222;19;20239;-67
2023/04/27 00:35:48;;;;;;;19.50;8.20;;;;;;;;;;12981362;19;20006;-67
2023/04/27 00:40:07;;;;;;;21.70;7.75;;;;;;;;;;12979793;19;20368;-68
2023/04/27 00:44:26;;;;;;;24.40;8.77;;;;;;;;;;12979763;19;20014;-67
2023/04/27 00:48:44;;;;;;;21.98;9.43;;;;;;;;;;12979977;19;20006;-67
2023/04/27 00:53:02;;;;;;;;;;;;;;;;;;12979613;19;20022;-67
2023/04/27 00:57:22;;;;;;;17.13;8.20;;;;;;;;;;12978416;19;19918;-67
2023/04/27 01:01:39;;;;;;;15.05;7.68;;;;;;;;;;12986989;19;20014;-68
2023/04/27 01:06:00;;;;;;;18.17;7.50;;;;;;;;;;12990659;19;20085;-67
2023/04/27 01:10:18;;;;;;;18.95;7.72;;;;;;;;;;12991532;19;20354;-68
2023/04/27 01:14:36;;;;;;;21.02;8.15;;;;;;;;;;12991731;19;20027;-67
2023/04/27 01:18:54;;;;;;;16.38;8.30;;;;;;;;;;12991509;19;20038;-67
2023/04/27 01:23:13;;;;;;;21.60;9.43;;;;;;;;;;12990214;19;20351;-67
2023/04/27 01:27:33;;;;;;;20.27;8.45;;;;;;;;;;12992553;19;20025;-67
2023/04/27 01:31:51;;;;;;;21.75;8.40;;;;;;;;;;12991222;19;20015;-69
2023/04/27 01:36:09;;;;;;;20.37;8.40;;;;;;;;;;12990637;19;20461;-67
2023/04/27 01:40:26;;;;;;;19.80;8.00;;;;;;;;;;12986414;19;20212;-68
2023/04/27 01:44:44;;;;;;;20.58;8.07;;;;;;;;;;12989314;19;20014;-67
2023/04/27 01:49:02;;;;;;;19.90;8.73;;;;;;;;;;12989005;19;20403;-67
2023/04/27 01:53:20;;;;;;;17.35;7.90;;;;;;;;;;12989284;19;20011;-67
2023/04/27 01:57:38;;;;;;;13.93;6.25;;;;;;;;;;12988306;19;20015;-67
2023/04/27 02:01:56;;;;;;;16.55;6.95;;;;;;;;;;12989638;19;20375;-67
2023/04/27 02:06:14;;;;;;;18.75;7.03;;;;;;;;;;12988123;19;20027;-68
2023/04/27 02:10:31;;;;;;;15.45;5.80;;;;;;;;;;12989417;19;20339;-67
2023/04/27 02:14:49;;;;;;;16.08;7.25;;;;;;;;;;12988775;19;20014;-67
2023/04/27 02:19:06;;;;;;;20.60;7.43;;;;;;;;;;12987141;19;20528;-68
2023/04/27 02:23:24;;;;;;;17.50;7.70;;;;;;;;;;12987618;19;20022;-67
2023/04/27 02:27:42;;;;;;;17.43;7.83;;;;;;;;;;12987899;19;20357;-67
2023/04/27 02:32:00;;;;;;;16.23;7.38;;;;;;;;;;12987655;19;20216;-68
2023/04/27 02:36:18;;;;;;;20.35;8.23;;;;;;;;;;12987567;19;20014;-67
2023/04/27 02:40:36;;;;;;;19.73;8.07;;;;;;;;;;12986539;19;20010;-68
2023/04/27 02:44:53;;;;;;;17.20;7.57;;;;;;;;;;12986415;19;20003;-67
2023/04/27 02:49:11;;;;;;;14.23;7.45;;;;;;;;;;12985500;19;20020;-67
2023/04/27 02:53:29;;;;;;;16.15;7.28;;;;;;;;;;12986679;19;20022;-67
2023/04/27 02:57:47;;;;;;;20.23;7.43;;;;;;;;;;12986006;19;20006;-68
2023/04/27 03:02:04;;;;;;;18.27;8.03;;;;;;;;;;12985535;19;20461;-67
2023/04/27 03:06:23;;;;;;;16.85;6.90;;;;;;;;;;12986408;19;20390;-67
2023/04/27 03:10:41;;;;;;;15.70;6.93;;;;;;;;;;12986246;19;20031;-67
2023/04/27 03:14:59;;;;;;;15.32;7.07;;;;;;;;;;12984997;19;20035;-68
2023/04/27 03:19:16;;;;;;;17.98;7.40;;;;;;;;;;12984919;19;20018;-68
2023/04/27 03:23:34;;;;;;;15.52;6.70;;;;;;;;;;12983049;19;20002;-67
2023/04/27 03:27:52;;;;;;;17.48;6.60;;;;;;;;;;12984432;19;20014;-67
2023/04/27 03:32:09;;;;;;;18.30;6.57;;;;;;;;;;12983972;19;20010;-67
2023/04/27 03:36:27;;;;;;;12.23;5.78;;;;;;;;;;12984572;19;20010;-67
2023/04/27 03:40:45;;;;;;;16.50;6.50;;;;;;;;;;12982657;19;20018;-68
2023/04/27 03:45:04;;;;;;;16.48;6.88;;;;;;;;;;12983115;19;20027;-67
2023/04/27 03:49:22;;;;;;;32.22;12.10;;;;;;;;;;12983872;19;20495;-67
2023/04/27 03:53:40;;;;;;;27.55;11.63;;;;;;;;;;12984139;19;20015;-67
2023/04/27 03:57:57;;;;;;;16.25;7.38;;;;;;;;;;12982328;19;20027;-68
2023/04/27 04:02:16;;;;;;;14.63;6.38;;;;;;;;;;12982717;19;20021;-68
2023/04/27 04:06:33;;;;;;;18.85;7.03;;;;;;;;;;12980709;19;20018;-68
2023/04/27 04:10:51;;;;;;;17.55;7.28;;;;;;;;;;12982801;19;20031;-67
2023/04/27 04:15:09;;;;;;;17.52;6.90;;;;;;;;;;12980630;19;20048;-67
2023/04/27 04:19:27;;;;;;;19.50;8.20;;;;;;;;;;12981592;19;20021;-67
2023/04/27 04:23:44;;;;;;;20.60;8.50;;;;;;;;;;12981727;19;20035;-67
2023/04/27 04:28:02;;;;;;;;;;;;;;;;;;12981634;19;20014;-67
2023/04/27 04:32:21;;;;;;;29.40;12.83;;;;;;;;;;12981576;19;19946;-67
2023/04/27 04:36:39;;;;;;;19.75;9.48;;;;;;;;;;12989403;19;20520;-67
2023/04/27 04:40:58;;;;;;;19.88;9.18;;;;;;;;;;12993184;19;20493;-67
2023/04/27 04:45:16;;;;;;;25.10;11.10;;;;;;;;;;12993102;19;20014;-67
2023/04/27 04:49:33;;;;;;;26.00;12.23;;;;;;;;;;12993307;19;20018;-67
2023/04/27 04:53:51;;;;;;;25.85;12.18;;;;;;;;;;12990702;19;20038;-68
2023/04/27 04:58:08;;;;;;;26.15;10.60;;;;;;;;;;12991931;19;20038;-67
2023/04/27 05:02:26;;;;;;;19.73;9.90;;;;;;;;;;12992339;19;20014;-67
2023/04/27 05:06:44;;;;;;;21.30;9.10;;;;;;;;;;12990679;19;20007;-68
2023/04/27 05:11:02;;;;;;;19.58;9.90;;;;;;;;;;12991170;19;20017;-68
2023/04/27 05:15:19;;;;;;;16.80;8.13;;;;;;;;;;12991618;19;20364;-67
2023/04/27 05:19:37;;;;;;;21.95;8.70;;;;;;;;;;12991956;19;20015;-67
2023/04/27 05:23:55;;;;;;;18.07;8.97;;;;;;;;;;12990892;19;20014;-67
2023/04/27 05:28:12;;;;;;;16.10;6.82;;;;;;;;;;12990656;19;20239;-67
2023/04/27 05:32:32;;;;;;;16.08;6.10;;;;;;;;;;12991352;19;20006;-68
2023/04/27 05:36:50;;;;;;;16.10;6.82;;;;;;;;;;12992065;19;20010;-66
2023/04/27 05:41:07;;;;;;;18.83;8.27;;;;;;;;;;12989453;19;20441;-67
2023/04/27 05:45:25;;;;;;;16.73;7.15;;;;;;;;;;12989205;19;20011;-67
2023/04/27 05:49:43;;;;;;;13.82;6.80;;;;;;;;;;12990191;19;20011;-66
2023/04/27 05:54:01;;;;;;;14.85;7.32;;;;;;;;;;12989618;19;20011;-68
2023/04/27 05:58:18;;;;;;;15.90;5.63;;;;;;;;;;12987442;19;20027;-66
2023/04/27 06:02:36;;;;;;;13.85;5.63;;;;;;;;;;12989055;19;20208;-66
2023/04/27 06:06:55;;;;;;;13.77;5.70;;;;;;;;;;12988680;19;20022;-66
2023/04/27 06:11:12;;;;;;;9.52;4.35;;;;;;;;;;12988828;19;20031;-67
2023/04/27 06:15:30;;;;;;;11.25;5.30;;;;;;;;;;12989414;19;20019;-67
2023/04/27 06:19:48;;;;;;;18.02;7.00;;;;;;;;;;12986193;19;20583;-66
2023/04/27 06:24:06;;;;;;;18.95;8.15;;;;;;;;;;12992261;19;20003;-67
2023/04/27 06:28:23;;;;;;;12.18;6.20;;;;;;;;;;12990035;19;20010;-67
2023/04/27 06:32:41;;;;;;;12.73;6.18;;;;;;;;;;12992487;19;20030;-68
2023/04/27 06:36:58;;;;;;;10.05;4.68;;;;;;;;;;12992059;19;20458;-66
2023/04/27 06:41:16;;;;;;;11.35;4.38;;;;;;;;;;12991453;19;20480;-67
2023/04/27 06:45:34;;;;;;;;;;;;;;;;;;12993072;19;20014;-68
2023/04/27 06:49:52;;;;;;;13.38;5.28;;;;;;;;;;12992960;19;19930;-67
2023/04/27 06:54:10;;;;;;;11.30;4.68;;;;;;;;;;12991730;19;20019;-66
2023/04/27 06:58:28;;;;;;;;;;;;;;;;;;12991511;19;20376;-66
2023/04/27 07:02:46;;;;;;;11.23;4.70;;;;;;;;;;12970832;19;19976;-66
2023/04/27 07:07:03;;;;;;;15.30;4.00;;;;;;;;;;12991215;19;20042;-68
2023/04/27 07:11:23;;;;;;;15.07;3.88;;;;;;;;;;12991568;19;20138;-67
2023/04/27 07:15:40;;;;;;;7.45;3.58;;;;;;;;;;12991875;19;20033;-67
2023/04/27 07:20:00;;;;;;;9.20;3.53;;;;;;;;;;12991135;19;20031;-68
2023/04/27 07:24:18;;;;;;;9.88;3.88;;;;;;;;;;12988563;19;20347;-64
2023/04/27 07:28:35;;;;;;;7.20;2.80;;;;;;;;;;12991148;19;20521;-64
2023/04/27 07:32:53;;;;;;;5.50;2.38;;;;;;;;;;12990352;19;20023;-64
2023/04/27 07:37:11;;;;;;;4.45;1.98;;;;;;;;;;12989735;19;20038;-65
2023/04/27 07:41:29;;;;;;;8.25;1.80;;;;;;;;;;12988910;19;20021;-64
2023/04/27 07:45:48;;;;;;;3.58;1.60;;;;;;;;;;12989789;19;20014;-65
2023/04/27 07:50:09;;;;;;;6.97;1.80;;;;;;;;;;12989525;19;20014;-65
2023/04/27 07:54:27;;;;;;;3.50;1.33;;;;;;;;;;12990344;19;20358;-65
2023/04/27 07:58:45;;;;;;;;;;;;;;;;;;12990577;19;20052;-65
2023/04/27 08:03:03;;;;;;;2.78;1.60;;;;;;;;;;12964696;19;19926;-65
2023/04/27 08:07:21;;;;;;;4.50;1.40;;;;;;;;;;12988493;19;20026;-64
2023/04/27 08:11:39;;;;;;;2.92;1.77;;;;;;;;;;12988319;19;20017;-65
2023/04/27 08:15:58;;;;;;;9.60;1.85;;;;;;;;;;12988119;19;20010;-65
2023/04/27 08:20:15;;;;;;;4.20;1.80;;;;;;;;;;12988314;19;20034;-65
2023/04/27 08:24:33;;;;;;;8.05;2.03;;;;;;;;;;12988357;19;20406;-64
2023/04/27 08:28:51;;;;;;;6.95;2.60;;;;;;;;;;12988281;19;20046;-65
2023/04/27 08:33:08;;;;;;;4.55;1.85;;;;;;;;;;12986764;19;20018;-65
2023/04/27 08:37:26;;;;;;;6.35;2.05;;;;;;;;;;12987039;19;20010;-64
2023/04/27 08:41:45;;;;;;;4.75;1.90;;;;;;;;;;12987371;19;20010;-64
2023/04/27 08:46:03;;;;;;;4.32;1.83;;;;;;;;;;12986257;19;20014;-64
2023/04/27 08:50:22;;;;;;;5.10;1.30;;;;;;;;;;12986752;19;20356;-65
2023/04/27 08:54:40;;;;;;;7.95;1.92;;;;;;;;;;12986810;19;20351;-64
2023/04/27 08:59:00;;;;;;;4.40;1.80;;;;;;;;;;12984594;19;20015;-64
2023/04/27 09:03:24;;;;;;;8.00;1.90;;;;;;;;;;12985677;19;20077;-65
2023/04/27 09:07:58;;;;;;;6.47;2.42;;;;;;;;;;12985683;19;20019;-65
2023/04/27 09:12:20;;;;;;;9.10;2.00;;;;;;;;;;12984988;19;20028;-64
2023/04/27 09:16:38;;;;;;;7.40;1.98;;;;;;;;;;12985325;19;20025;-65
2023/04/27 09:20:56;;;;;;;2.45;1.60;;;;;;;;;;12988244;19;20018;-65
2023/04/27 09:25:28;;;;;;;3.08;1.52;;;;;;;;;;12997370;19;20599;-64
2023/04/27 09:29:46;;;;;;;6.13;2.25;;;;;;;;;;12998166;19;20014;-65
2023/04/27 09:34:04;;;;;;;3.03;1.80;;;;;;;;;;12996709;19;20770;-64
2023/04/27 09:38:22;;;;;;;5.57;2.10;;;;;;;;;;12993911;19;21866;-64
2023/04/27 09:42:41;;;;;;;6.80;2.22;;;;;;;;;;12996323;19;20003;-65
2023/04/27 09:47:00;;;;;;;4.00;1.35;;;;;;;;;;12994041;19;20021;-65
2023/04/27 09:51:17;;;;;;;2.85;1.52;;;;;;;;;;12995528;19;20392;-65
2023/04/27 09:55:41;;;;;;;3.97;1.83;;;;;;;;;;12995641;19;20015;-65
2023/04/27 10:00:27;;;;;;;3.70;1.70;;;;;;;;;;12995883;19;20014;-65
2023/04/27 10:05:39;;;;;;;4.65;1.60;;;;;;;;;;12992906;19;20022;-65
2023/04/27 10:10:02;;;;;;;3.78;2.47;;;;;;;;;;12993489;19;20018;-65
2023/04/27 10:14:22;;;;;;;4.18;1.70;;;;;;;;;;12994762;19;20051;-64
2023/04/27 10:18:52;;;;;;;8.35;1.77;;;;;;;;;;12995362;19;20025;-65
2023/04/27 10:23:10;;;;;;;7.47;2.20;;;;;;;;;;12994790;19;20044;-65
2023/04/27 10:27:37;;;;;;;;;;;;;;;;;;12993028;19;20067;-65
2023/04/27 10:31:55;;;;;;;4.90;1.70;;;;;;;;;;12990008;19;19915;-64
2023/04/27 10:36:14;;;;;;;5.85;1.98;;;;;;;;;;12992972;19;20363;-64
2023/04/27 10:40:34;;;;;;;2.60;1.42;;;;;;;;;;12992146;19;20011;-65
2023/04/27 10:44:56;;;;;;;2.83;1.52;;;;;;;;;;12991891;19;20048;-65
2023/04/27 10:49:15;;;;;;;6.90;1.92;;;;;;;;;;12992466;19;20026;-65
2023/04/27 10:53:34;;;;;;;3.22;1.40;;;;;;;;;;12993480;19;20014;-64
2023/04/27 10:57:54;;;;;;;7.50;1.60;;;;;;;;;;12970135;19;20921;-65
2023/04/27 11:02:12;;;;;;;7.88;2.10;;;;;;;;;;12991657;19;20038;-65
2023/04/27 11:06:32;;;;;;;3.22;1.48;;;;;;;;;;12991433;19;20014;-65
2023/04/27 11:10:50;;;;;;;4.57;1.73;;;;;;;;;;12991669;19;20015;-65
2023/04/27 11:15:09;;;;;;;3.90;1.60;;;;;;;;;;12992419;19;20838;-65
2023/04/27 11:19:29;;;;;;;3.40;1.15;;;;;;;;;;12991713;19;20018;-65
2023/04/27 11:23:47;;;;;;;2.17;1.25;;;;;;;;;;12966529;19;20015;-65
2023/04/27 11:28:17;;;;;;;3.22;1.15;;;;;;;;;;12989988;19;20006;-64
2023/04/27 11:32:35;;;;;;;6.50;1.30;;;;;;;;;;12990363;19;20037;-65
2023/04/27 11:37:02;;;;;;;;;;;;;;;;;;12990763;19;20477;-64
2023/04/27 11:41:31;;;;;;;2.67;1.40;;;;;;;;;;12989431;19;20014;-64
2023/04/27 11:45:49;;;;;;;4.22;1.75;;;;;;;;;;12987029;19;20031;-65
2023/04/27 11:50:08;;;;;;;3.50;1.35;;;;;;;;;;12989645;19;20022;-65
2023/04/27 11:54:28;;;;;;;3.08;1.65;;;;;;;;;;12989803;19;20030;-65
2023/04/27 11:58:46;;;;;;;3.50;1.30;;;;;;;;;;12990309;19;20025;-64
2023/04/27 12:03:04;;;;;;;3.58;1.55;;;;;;;;;;12988643;19;20017;-65
2023/04/27 12:07:21;;;;;;;;;;;;;;;;;;12989652;19;20038;-65
2023/04/27 12:11:39;;;;;;;5.78;1.88;;;;;;;;;;12989411;19;20011;-65
2023/04/27 12:15:57;;;;;;;;;;;;;;;;;;12989657;19;20031;-65
2023/04/27 12:20:17;;;;;;;4.18;1.52;;;;;;;;;;12988345;19;19932;-64
2023/04/27 12:24:35;;;;;;;3.30;1.73;;;;;;;;;;12988615;19;20027;-64
2023/04/27 12:28:53;;;;;;;5.43;3.10;;;;;;;;;;12986982;19;20481;-64
2023/04/27 12:33:11;;;;;;;;;;;;;;;;;;12987834;19;20844;-65
2023/04/27 12:37:29;;;;;;;1.20;1.10;;;;;;;;;;12987197;19;20268;-65
2023/04/27 12:41:48;;;;;;;7.70;3.03;;;;;;;;;;12985573;19;20010;-65
2023/04/27 12:46:06;;;;;;;5.30;1.63;;;;;;;;;;12985582;19;20025;-65
2023/04/27 12:50:23;;;;;;;;;;;;;;;;;;12987036;19;20670;-65
2023/04/27 12:54:41;;;;;;;5.68;1.50;;;;;;;;;;12986713;19;19926;-65
2023/04/27 12:58:59;;;;;;;3.35;1.77;;;;;;;;;;12998511;19;20022;-65
2023/04/27 13:03:17;;;;;;;;;;;;;;;;;;12998790;19;20011;-64
2023/04/27 13:07:35;;;;;;;6.20;1.80;;;;;;;;;;12998674;19;20461;-65
2023/04/27 13:11:53;;;;;;;4.75;1.88;;;;;;;;;;12998302;19;20018;-65
2023/04/27 13:16:11;;;;;;;3.03;1.73;;;;;;;;;;12997521;19;20010;-64
2023/04/27 13:20:29;;;;;;;6.63;1.98;;;;;;;;;;12996933;19;20476;-65
2023/04/27 13:24:47;;;;;;;2.92;1.60;;;;;;;;;;12997192;19;20011;-65
2023/04/27 13:29:04;;;;;;;4.95;1.88;;;;;;;;;;12996580;19;20014;-65
2023/04/27 13:33:22;;;;;;;4.30;1.65;;;;;;;;;;12997295;19;20030;-65
2023/04/27 13:37:41;;;;;;;;;;;;;;;;;;12997625;19;20015;-64
2023/04/27 13:41:58;;;;;;;3.70;1.65;;;;;;;;;;12996400;19;19911;-65
2023/04/27 13:46:16;;;;;;;3.85;2.30;;;;;;;;;;12995605;19;20027;-64
2023/04/27 13:50:34;;;;;;;;;;;;;;;;;;12996811;19;20014;-64
2023/04/27 13:54:52;;;;;;;2.95;1.67;;;;;;;;;;12996438;19;19948;-65
2023/04/27 13:59:12;;;;;;;5.05;2.28;;;;;;;;;;12995120;19;20036;-64
2023/04/27 14:03:30;;;;;;;4.60;2.33;;;;;;;;;;12995596;19;20356;-64
2023/04/27 14:07:48;;;;;;;5.68;2.33;;;;;;;;;;12994293;19;20123;-65
2023/04/27 14:12:07;;;;;;;6.80;2.03;;;;;;;;;;12994117;19;20039;-65
2023/04/27 14:16:25;;;;;;;3.83;1.80;;;;;;;;;;12993918;19;20021;-64
2023/04/27 14:21:01;;;;;;;4.03;1.83;;;;;;;;;;12991078;19;20010;-68
2023/04/27 14:25:19;;;;;;;12.10;3.80;;;;;;;;;;12987199;19;20420;-65
2023/04/27 14:29:36;;;;;;;8.43;3.55;;;;;;;;;;12988721;19;20018;-64
2023/04/27 14:33:55;;;;;;;10.25;3.92;;;;;;;;;;12989407;19;20022;-64
2023/04/27 14:38:13;;;;;;;5.28;2.10;;;;;;;;;;12988449;19;20014;-64
2023/04/27 14:42:31;;;;;;;6.97;3.10;;;;;;;;;;12987671;19;20468;-63
2023/04/27 14:46:48;;;;;;;8.82;2.20;;;;;;;;;;12988044;19;20469;-63
2023/04/27 14:51:06;;;;;;;4.80;1.42;;;;;;;;;;12987495;19;20014;-63
2023/04/27 14:55:24;;;;;;;3.10;1.77;;;;;;;;;;12987438;19;20339;-64
2023/04/27 14:59:43;;;;;;;6.30;2.47;;;;;;;;;;12987162;19;20015;-64
2023/04/27 15:04:01;;;;;;;7.63;2.70;;;;;;;;;;12982358;19;20428;-64
2023/04/27 15:08:19;;;;;;;6.55;2.90;;;;;;;;;;12984720;19;20014;-64
2023/04/27 15:12:41;;;;;;;3.55;1.55;;;;;;;;;;12985741;19;20018;-64
2023/04/27 15:16:58;;;;;;;6.18;2.10;;;;;;;;;;12985870;19;20023;-64
2023/04/27 15:21:16;;;;;;;3.00;2.00;;;;;;;;;;12983138;19;20034;-63
2023/04/27 15:25:34;;;;;;;2.45;1.15;;;;;;;;;;12984662;19;20354;-64
2023/04/27 15:29:53;;;;;;;4.35;1.65;;;;;;;;;;12984530;19;20027;-64
2023/04/27 15:34:10;;;;;;;8.63;4.07;;;;;;;;;;12982960;19;20018;-64
2023/04/27 15:38:28;;;;;;;6.32;3.00;;;;;;;;;;12984137;19;20021;-64
2023/04/27 15:42:46;;;;;;;3.35;1.80;;;;;;;;;;12983159;19;20019;-64
2023/04/27 15:47:03;;;;;;;3.83;1.67;;;;;;;;;;12981949;19;20018;-64
2023/04/27 15:51:22;;;;;;;9.00;2.50;;;;;;;;;;12983892;19;20081;-64
2023/04/27 15:55:40;;;;;;;5.75;2.13;;;;;;;;;;12981685;19;20011;-64
2023/04/27 15:59:57;;;;;;;4.10;2.45;;;;;;;;;;12983502;19;20022;-64
2023/04/27 16:04:15;;;;;;;;;;;;;;;;;;12983732;19;20591;-65
2023/04/27 16:08:33;;;;;;;6.20;2.35;;;;;;;;;;12959504;19;19928;-64
2023/04/27 16:12:51;;;;;;;4.20;2.50;;;;;;;;;;12982582;19;20600;-64
2023/04/27 16:17:08;;;;;;;6.38;2.80;;;;;;;;;;12980860;19;20011;-64
2023/04/27 16:21:26;;;;;;;9.25;2.97;;;;;;;;;;12981693;19;20025;-64
2023/04/27 16:25:44;;;;;;;4.85;2.63;;;;;;;;;;12980509;19;20023;-64
2023/04/27 16:30:03;;;;;;;4.45;2.70;;;;;;;;;;12980713;19;20488;-64
2023/04/27 16:34:21;;;;;;;5.25;2.90;;;;;;;;;;12980215;19;20026;-63
2023/04/27 16:38:39;;;;;;;10.38;3.45;;;;;;;;;;12980305;19;20155;-64
2023/04/27 16:42:57;;;;;;;6.97;3.85;;;;;;;;;;12980061;19;20578;-64
2023/04/27 16:47:16;;;;;;;14.93;6.50;;;;;;;;;;12980187;19;20024;-63
2023/04/27 16:51:35;;;;;;;18.45;8.20;;;;;;;;;;12980457;19;20010;-63
2023/04/27 16:55:59;;;;;;;19.33;8.90;;;;;;;;;;12981508;19;20032;-64
2023/04/27 17:00:17;;;;;;;14.70;3.90;;;;;;;;;;12980569;19;20014;-64
2023/04/27 17:04:38;;;;;;;10.52;2.45;;;;;;;;;;12978114;19;20018;-64
2023/04/27 17:09:02;;;;;;;6.18;2.90;;;;;;;;;;12978187;19;20025;-64
2023/04/27 17:13:20;;;;;;;9.48;2.88;;;;;;;;;;12978257;19;20010;-64
2023/04/27 17:17:41;;;;;;;8.25;3.72;;;;;;;;;;12978904;19;20041;-64
2023/04/27 17:21:59;;;;;;;10.88;3.60;;;;;;;;;;12978995;19;20345;-63
2023/04/27 17:26:20;;;;;;;12.05;4.18;;;;;;;;;;12977737;19;20481;-63
2023/04/27 17:30:39;;;;;;;15.23;6.95;;;;;;;;;;12979098;19;20028;-64
2023/04/27 17:34:59;;;;;;;34.58;13.75;;;;;;;;;;12978452;19;20010;-63
2023/04/27 17:39:21;;;;;;;75.30;27.95;;;;;;;;;;12954454;19;20015;-64
2023/04/27 17:43:43;;;;;;;38.22;15.38;;;;;;;;;;12983543;19;20010;-62
2023/04/27 17:48:05;;;;;;;20.65;6.38;;;;;;;;;;12967655;19;20106;-63
2023/04/27 17:52:23;;;;;;;21.67;8.77;;;;;;;;;;12989882;19;20569;-63
2023/04/27 17:56:41;;;;;;;19.10;9.30;;;;;;;;;;12986419;19;20027;-63
2023/04/27 18:01:01;;;;;;;23.45;11.63;;;;;;;;;;12989683;19;20007;-64
2023/04/27 18:05:20;;;;;;;10.52;5.97;;;;;;;;;;12988134;19;20011;-63
2023/04/27 18:09:39;;;;;;;10.55;6.30;;;;;;;;;;12988716;19;20039;-63
2023/04/27 18:13:59;;;;;;;11.55;5.80;;;;;;;;;;12987380;19;20389;-64
2023/04/27 18:18:20;;;;;;;7.68;4.18;;;;;;;;;;12987225;19;20338;-63
2023/04/27 18:22:41;;;;;;;10.63;5.00;;;;;;;;;;12987485;19;20348;-63
2023/04/27 18:26:59;;;;;;;16.92;6.85;;;;;;;;;;12988396;19;20047;-63
2023/04/27 18:31:19;;;;;;;15.88;5.57;;;;;;;;;;12987172;19;20014;-63
2023/04/27 18:35:37;;;;;;;9.95;4.88;;;;;;;;;;12986569;19;20018;-64
2023/04/27 18:39:57;;;;;;;26.40;7.45;;;;;;;;;;12986910;19;20035;-63
2023/04/27 18:44:15;;;;;;;24.58;9.23;;;;;;;;;;12986613;19;20017;-63
2023/04/27 18:48:33;;;;;;;21.65;9.07;;;;;;;;;;12986793;19;20518;-62
2023/04/27 18:52:51;;;;;;;26.20;7.55;;;;;;;;;;12984832;19;20041;-63
2023/04/27 18:57:11;;;;;;;20.60;7.07;;;;;;;;;;12967385;19;20007;-63
2023/04/27 19:01:31;;;;;;;22.70;7.55;;;;;;;;;;12986070;19;20468;-63
2023/04/27 19:05:51;;;;;;;34.95;10.73;;;;;;;;;;12985641;19;20042;-63
2023/04/27 19:10:10;;;;;;;31.75;12.60;;;;;;;;;;12984635;19;20035;-63
2023/04/27 19:14:29;;;;;;;25.60;10.15;;;;;;;;;;12985275;19;20042;-63
2023/04/27 19:18:48;;;;;;;31.17;11.32;;;;;;;;;;12966026;19;20014;-63
2023/04/27 19:23:08;;;;;;;;;;;;;;;;;;12983786;19;20503;-62
2023/04/27 19:27:26;;;;;;;45.75;12.27;;;;;;;;;;12983414;19;20390;-62
2023/04/27 19:31:45;;;;;;;27.58;10.70;;;;;;;;;;12983839;19;20009;-62
2023/04/27 19:36:08;;;;;;;40.45;13.10;;;;;;;;;;12982905;19;20033;-62
2023/04/27 19:40:28;;;;;;;21.38;10.73;;;;;;;;;;12983273;19;20006;-62
2023/04/27 19:44:50;;;;;;;31.63;10.48;;;;;;;;;;12982589;19;20007;-62
2023/04/27 19:49:08;;;;;;;27.85;9.70;;;;;;;;;;12960441;19;20010;-62
2023/04/27 19:53:29;;;;;;;24.00;11.32;;;;;;;;;;12981619;19;20021;-62
2023/04/27 19:57:47;;;;;;;27.08;11.68;;;;;;;;;;12981765;19;20327;-62
2023/04/27 20:02:08;;;;;;;46.47;17.45;;;;;;;;;;12980858;19;20007;-61
2023/04/27 20:06:25;;;;;;;48.42;18.48;;;;;;;;;;12979597;19;20022;-61
2023/04/27 20:10:43;;;;;;;46.75;18.65;;;;;;;;;;12982497;19;20010;-62
2023/04/27 20:15:04;;;;;;;44.88;16.30;;;;;;;;;;12958658;19;20460;-62
2023/04/27 20:19:24;;;;;;;52.28;19.20;;;;;;;;;;12958517;19;20406;-62
2023/04/27 20:23:41;;;;;;;66.75;21.77;;;;;;;;;;12942351;19;20489;-62
2023/04/27 20:28:03;;;;;;;84.45;29.20;;;;;;;;;;12957128;19;20015;-63
2023/04/27 20:32:20;;;;;;;;;;;;;;;;;;12981153;19;20007;-63
2023/04/27 20:36:43;;;;;;;113.55;38.75;;;;;;;;;;12981575;19;19918;-63
2023/04/27 20:41:03;;;;;;;153.52;52.80;;;;;;;;;;12981085;19;20014;-63
2023/04/27 20:45:29;;;;;;;131.55;46.97;;;;;;;;;;12980518;19;20357;-63
2023/04/27 20:49:47;;;;;;;74.18;28.15;;;;;;;;;;12980285;19;20336;-62
2023/04/27 20:54:05;;;;;;;;;;;;;;;;;;12957221;19;20603;-62
2023/04/27 20:58:25;;;;;;;68.40;24.35;;;;;;;;;;12979831;19;19922;-62
2023/04/27 21:02:43;;;;;;;70.40;26.10;;;;;;;;;;12978948;19;20505;-62
2023/04/27 21:07:01;;;;;;;65.82;23.98;;;;;;;;;;12978666;19;20030;-62
2023/04/27 21:11:22;;;;;;;62.88;21.48;;;;;;;;;;12979034;19;20098;-62
2023/04/27 21:15:42;;;;;;;64.43;23.08;;;;;;;;;;12979304;19;20019;-62
2023/04/27 21:20:00;;;;;;;69.82;24.77;;;;;;;;;;12989905;19;20495;-63
2023/04/27 21:24:23;;;;;;;80.07;26.17;;;;;;;;;;12989393;19;20024;-62
2023/04/27 21:28:42;;;;;;;;;;;;;;;;;;12970375;19;20011;-62
2023/04/27 21:33:01;;;;;;;159.15;42.55;;;;;;;;;;12990744;19;19922;-62
2023/04/27 21:37:19;;;;;;;102.32;31.02;;;;;;;;;;12992420;19;20014;-62
2023/04/27 21:41:38;;;;;;;84.03;26.55;;;;;;;;;;12987948;19;20010;-61
2023/04/27 21:45:56;;;;;;;82.57;24.90;;;;;;;;;;12990777;19;20014;-61
2023/04/27 21:50:15;;;;;;;78.32;24.40;;;;;;;;;;12989396;19;20014;-61
2023/04/27 21:54:33;;;;;;;67.53;22.48;;;;;;;;;;12990414;19;20014;-62
2023/04/27 21:58:51;;;;;;;68.88;25.67;;;;;;;;;;12990233;19;20600;-62
2023/04/27 22:03:08;;;;;;;40.15;18.25;;;;;;;;;;12989033;19;20562;-61
2023/04/27 22:07:27;;;;;;;;;;;;;;;;;;12989596;19;20307;-62
2023/04/27 22:11:45;;;;;;;36.92;16.88;;;;;;;;;;12989121;19;19919;-62
2023/04/27 22:16:03;;;;;;;43.33;17.65;;;;;;;;;;12987844;19;20352;-62
2023/04/27 22:20:22;;;;;;;41.95;16.17;;;;;;;;;;12988556;19;21115;-62
2023/04/27 22:24:40;;;;;;;43.33;19.80;;;;;;;;;;12988022;19;20015;-62
2023/04/27 22:28:57;;;;;;;41.70;19.02;;;;;;;;;;12988022;19;20033;-62
2023/04/27 22:33:15;;;;;;;35.55;15.80;;;;;;;;;;12987801;19;20018;-63
2023/04/27 22:37:33;;;;;;;28.30;14.38;;;;;;;;;;12988114;19;20011;-63
2023/04/27 22:41:51;;;;;;;37.83;15.30;;;;;;;;;;12987098;19;20034;-62
2023/04/27 22:46:08;;;;;;;32.70;15.40;;;;;;;;;;12986884;19;20011;-63
2023/04/27 22:50:28;;;;;;;34.70;14.90;;;;;;;;;;12986464;19;20226;-63
2023/04/27 22:54:46;;;;;;;33.10;13.95;;;;;;;;;;12986768;19;20027;-63
2023/04/27 22:59:03;;;;;;;34.53;13.93;;;;;;;;;;12985780;19;20025;-63
2023/04/27 23:03:21;;;;;;;38.22;14.48;;;;;;;;;;12986584;19;20076;-63
2023/04/27 23:07:42;;;;;;;36.22;13.95;;;;;;;;;;12986373;19;20010;-63
2023/04/27 23:11:59;;;;;;;28.23;12.35;;;;;;;;;;12986424;19;20030;-63
2023/04/27 23:16:17;;;;;;;36.03;14.27;;;;;;;;;;12985928;19;20368;-63
2023/04/27 23:20:35;;;;;;;33.78;13.05;;;;;;;;;;12985600;19;20035;-63
2023/04/27 23:24:53;;;;;;;29.95;13.25;;;;;;;;;;12984660;19;20014;-63
2023/04/27 23:29:11;;;;;;;;;;;;;;;;;;12984961;19;20010;-62
2023/04/27 23:33:28;;;;;;;33.42;13.75;;;;;;;;;;12985013;19;19919;-62
2023/04/27 23:37:46;;;;;;;29.20;12.07;;;;;;;;;;12984803;19;20018;-62
2023/04/27 23:42:04;;;;;;;31.00;12.88;;;;;;;;;;12981531;19;20006;-62
2023/04/27 23:46:21;;;;;;;32.00;11.93;;;;;;;;;;12984458;19;20010;-62
2023/04/27 23:50:39;;;;;;;32.35;13.18;;;;;;;;;;12984262;19;20564;-62
2023/04/27 23:54:57;;;;;;;34.35;14.45;;;;;;;;;;12983968;19;20011;-62
2023/04/27 23:59:19;;;;;;;25.92;11.73;;;;;;;;;;12983673;19;20592;-62
